Time;durP1;ratioP1;P1;durP2;ratioP2;P2;SDS_P1;SDS_P2;PMS_P1;PMS_P2;Temp;Humidity;BMP_temperature;BMP_pressure;BME280_temperature;BME280_humidity;BME280_pressure;Samples;Min_cycle;Max_cycle;Signal;HPM_P1;HPM_P2
2024/01/20 00:00:59;;;;;;;1999.90;999.90;;;;;;;;;;5087580;28;20041;-83
2024/01/20 00:03:26;;;;;;;1999.90;999.90;;;;;;;;;;5074635;28;20492;-82
2024/01/20 00:05:53;;;;;;;1999.90;999.90;;;;;;;;;;5056929;28;20417;-83
2024/01/20 00:08:19;;;;;;;1999.90;999.90;;;;;;;;;;5068926;28;20055;-83
2024/01/20 00:10:46;;;;;;;1999.90;999.90;;;;;;;;;;5084493;28;20408;-83
2024/01/20 00:13:14;;;;;;;1999.90;999.90;;;;;;;;;;5055777;28;20052;-82
2024/01/20 00:15:41;;;;;;;1999.90;999.90;;;;;;;;;;5073208;28;20044;-88
2024/01/20 00:18:07;;;;;;;1999.90;999.90;;;;;;;;;;5081221;28;20512;-83
2024/01/20 00:20:34;;;;;;;1999.90;999.90;;;;;;;;;;5073921;28;20079;-83
2024/01/20 00:23:00;;;;;;;1999.90;999.90;;;;;;;;;;5088920;28;20490;-84
2024/01/20 00:25:27;;;;;;;1999.90;999.90;;;;;;;;;;5081702;28;20102;-83
2024/01/20 00:27:53;;;;;;;1999.90;999.90;;;;;;;;;;5083141;28;20050;-83
2024/01/20 00:30:21;;;;;;;1999.90;999.90;;;;;;;;;;5072608;28;20051;-84
2024/01/20 00:32:48;;;;;;;1999.90;999.90;;;;;;;;;;5081203;28;20041;-83
2024/01/20 00:35:14;;;;;;;1999.90;999.90;;;;;;;;;;5074390;28;20045;-83
2024/01/20 00:37:41;;;;;;;1999.90;999.90;;;;;;;;;;5077764;28;20139;-86
2024/01/20 00:40:08;;;;;;;1999.90;999.90;;;;;;;;;;5074849;28;20456;-83
2024/01/20 00:42:35;;;;;;;1999.90;999.90;;;;;;;;;;5073998;28;20053;-83
2024/01/20 00:45:01;;;;;;;1999.90;999.90;;;;;;;;;;5084744;28;20044;-83
2024/01/20 00:47:29;;;;;;;1999.90;999.90;;;;;;;;;;5074038;28;20040;-83
2024/01/20 00:49:56;;;;;;;1999.90;999.90;;;;;;;;;;5080000;28;20049;-86
2024/01/20 00:52:22;;;;;;;1999.90;999.90;;;;;;;;;;5080038;28;20044;-84
2024/01/20 00:54:49;;;;;;;1999.90;999.90;;;;;;;;;;5081163;28;20040;-84
2024/01/20 00:57:15;;;;;;;1999.90;999.90;;;;;;;;;;5079653;28;20059;-83
2024/01/20 00:59:42;;;;;;;1999.90;999.90;;;;;;;;;;5077546;28;20048;-84
2024/01/20 01:02:08;;;;;;;1999.90;999.90;;;;;;;;;;5073320;28;20086;-84
2024/01/20 01:04:36;;;;;;;1999.90;999.90;;;;;;;;;;5083677;28;20089;-83
2024/01/20 01:07:03;;;;;;;1999.90;999.90;;;;;;;;;;5082900;28;20045;-83
2024/01/20 01:09:29;;;;;;;1999.90;999.90;;;;;;;;;;5078783;28;20404;-83
2024/01/20 01:11:56;;;;;;;1999.90;999.90;;;;;;;;;;5074124;28;20048;-84
2024/01/20 01:14:22;;;;;;;1999.90;999.90;;;;;;;;;;5073636;28;20477;-82
2024/01/20 01:16:49;;;;;;;1999.90;999.90;;;;;;;;;;5086148;28;20131;-83
2024/01/20 01:19:16;;;;;;;1999.90;999.90;;;;;;;;;;5080282;28;20045;-83
2024/01/20 01:21:43;;;;;;;1999.90;999.90;;;;;;;;;;5083685;28;20056;-83
2024/01/20 01:24:10;;;;;;;1999.90;999.90;;;;;;;;;;5069439;28;20041;-83
2024/01/20 01:26:37;;;;;;;1999.90;999.90;;;;;;;;;;5073719;28;20059;-85
2024/01/20 01:29:03;;;;;;;1999.90;999.90;;;;;;;;;;5065198;28;20048;-83
2024/01/20 01:31:30;;;;;;;1999.90;999.90;;;;;;;;;;5076467;28;20051;-83
2024/01/20 01:33:56;;;;;;;1999.90;999.90;;;;;;;;;;5071044;28;20056;-84
2024/01/20 01:36:23;;;;;;;1999.90;999.90;;;;;;;;;;5069782;28;20143;-83
2024/01/20 01:38:50;;;;;;;1999.90;999.90;;;;;;;;;;5066275;28;20055;-87
2024/01/20 01:41:19;;;;;;;1999.90;999.90;;;;;;;;;;5072573;28;20053;-83
2024/01/20 01:43:45;;;;;;;1999.90;999.90;;;;;;;;;;5072050;28;20068;-83
2024/01/20 01:46:12;;;;;;;1999.90;999.90;;;;;;;;;;5076688;28;20063;-83
2024/01/20 01:48:39;;;;;;;1999.90;999.90;;;;;;;;;;5076509;28;20060;-83
2024/01/20 01:51:05;;;;;;;1999.90;999.90;;;;;;;;;;5071085;28;20052;-83
2024/01/20 01:53:33;;;;;;;1999.90;999.90;;;;;;;;;;5065721;28;20044;-85
2024/01/20 01:56:01;;;;;;;1999.90;999.90;;;;;;;;;;5073040;28;20053;-84
2024/01/20 01:58:28;;;;;;;1999.90;999.90;;;;;;;;;;5072845;28;20048;-84
2024/01/20 02:00:55;;;;;;;1999.90;999.90;;;;;;;;;;5067121;28;20048;-83
2024/01/20 02:03:21;;;;;;;1999.90;999.90;;;;;;;;;;5076538;28;20049;-84
2024/01/20 02:05:48;;;;;;;1999.90;999.90;;;;;;;;;;5075182;28;20513;-82
2024/01/20 02:08:14;;;;;;;1999.90;999.90;;;;;;;;;;5077633;28;20044;-84
2024/01/20 02:10:42;;;;;;;1999.90;999.90;;;;;;;;;;5072604;28;20053;-84
2024/01/20 02:13:11;;;;;;;1999.90;999.90;;;;;;;;;;5074442;28;20048;-84
2024/01/20 02:15:37;;;;;;;1999.90;999.90;;;;;;;;;;5079199;28;20587;-87
2024/01/20 02:18:04;;;;;;;1999.90;999.90;;;;;;;;;;5072492;28;20057;-83
2024/01/20 02:20:31;;;;;;;1999.90;999.90;;;;;;;;;;5081313;28;20052;-82
2024/01/20 02:22:59;;;;;;;1999.90;999.90;;;;;;;;;;5072898;28;20055;-82
2024/01/20 02:25:25;;;;;;;1999.90;999.90;;;;;;;;;;5078846;28;20412;-83
2024/01/20 02:27:52;;;;;;;1999.90;999.90;;;;;;;;;;5077699;28;20048;-82
2024/01/20 02:30:18;;;;;;;1999.90;999.90;;;;;;;;;;5069743;28;20091;-82
2024/01/20 02:32:45;;;;;;;1999.90;999.90;;;;;;;;;;5081061;28;20040;-82
2024/01/20 02:35:11;;;;;;;1999.90;999.90;;;;;;;;;;5072106;28;20088;-83
2024/01/20 02:37:38;;;;;;;1999.90;999.90;;;;;;;;;;5072092;28;20041;-82
2024/01/20 02:40:08;;;;;;;1999.90;999.90;;;;;;;;;;5058541;28;20048;-86
2024/01/20 02:42:34;;;;;;;1999.90;999.90;;;;;;;;;;5069817;28;20053;-82
2024/01/20 02:45:01;;;;;;;1999.90;999.90;;;;;;;;;;5081671;28;20060;-83
2024/01/20 02:47:27;;;;;;;1999.90;999.90;;;;;;;;;;5081145;28;20040;-83
2024/01/20 02:49:54;;;;;;;1999.90;999.90;;;;;;;;;;5077364;28;20049;-82
2024/01/20 02:52:20;;;;;;;1999.90;999.90;;;;;;;;;;5074872;28;20045;-82
2024/01/20 02:54:47;;;;;;;1999.90;999.90;;;;;;;;;;5076786;28;20040;-83
2024/01/20 02:57:16;;;;;;;1999.90;999.90;;;;;;;;;;5082334;28;20051;-82
2024/01/20 02:59:42;;;;;;;1999.90;999.90;;;;;;;;;;5078312;28;20044;-82
2024/01/20 03:02:09;;;;;;;1999.90;999.90;;;;;;;;;;5082920;28;20463;-82
2024/01/20 03:04:35;;;;;;;1999.90;999.90;;;;;;;;;;5077329;28;20049;-82
2024/01/20 03:07:02;;;;;;;1999.90;999.90;;;;;;;;;;5082891;28;20130;-82
2024/01/20 03:09:28;;;;;;;1999.90;999.90;;;;;;;;;;5085466;28;20512;-83
2024/01/20 03:11:55;;;;;;;1999.90;999.90;;;;;;;;;;5086533;28;20062;-82
2024/01/20 03:14:23;;;;;;;1999.90;999.90;;;;;;;;;;5075056;28;20127;-82
2024/01/20 03:16:49;;;;;;;1999.90;999.90;;;;;;;;;;5075539;28;20083;-82
2024/01/20 03:19:16;;;;;;;1999.90;999.90;;;;;;;;;;5078052;28;20048;-82
2024/01/20 03:21:42;;;;;;;1999.90;999.90;;;;;;;;;;5076146;28;20045;-82
2024/01/20 03:24:10;;;;;;;1999.90;999.90;;;;;;;;;;5079509;28;20412;-82
2024/01/20 03:26:36;;;;;;;1999.90;999.90;;;;;;;;;;5080825;28;20048;-82
2024/01/20 03:29:03;;;;;;;1999.90;999.90;;;;;;;;;;5083147;28;20055;-83
2024/01/20 03:31:31;;;;;;;1999.90;999.90;;;;;;;;;;5080594;28;20424;-82
2024/01/20 03:33:57;;;;;;;1999.90;999.90;;;;;;;;;;5077492;28;20475;-84
2024/01/20 03:36:24;;;;;;;1999.90;999.90;;;;;;;;;;5089666;28;20511;-81
2024/01/20 03:38:50;;;;;;;1999.90;999.90;;;;;;;;;;5075151;28;20045;-81
2024/01/20 03:41:17;;;;;;;1999.90;999.90;;;;;;;;;;5082947;28;20044;-81
2024/01/20 03:43:44;;;;;;;1999.90;999.90;;;;;;;;;;5079626;28;20040;-82
2024/01/20 03:46:10;;;;;;;1999.90;999.90;;;;;;;;;;5095431;28;20113;-83
2024/01/20 03:48:39;;;;;;;1999.90;999.90;;;;;;;;;;5097201;28;20045;-89
2024/01/20 03:51:05;;;;;;;1999.90;999.90;;;;;;;;;;5088521;28;20053;-82
2024/01/20 03:53:32;;;;;;;1999.90;999.90;;;;;;;;;;5088077;28;20066;-86
2024/01/20 03:55:59;;;;;;;1999.90;999.90;;;;;;;;;;5074402;28;20040;-81
2024/01/20 03:58:25;;;;;;;1999.90;999.90;;;;;;;;;;5078452;28;20045;-81
2024/01/20 04:00:52;;;;;;;1999.90;999.90;;;;;;;;;;5070221;28;20044;-81
2024/01/20 04:03:18;;;;;;;1999.90;999.90;;;;;;;;;;5085993;28;20045;-82
2024/01/20 04:05:47;;;;;;;1999.90;999.90;;;;;;;;;;5067507;28;20059;-81
2024/01/20 04:08:14;;;;;;;1999.90;999.90;;;;;;;;;;5066055;28;20133;-82
2024/01/20 04:10:40;;;;;;;1999.90;999.90;;;;;;;;;;5076617;28;20051;-82
2024/01/20 04:13:07;;;;;;;1999.90;999.90;;;;;;;;;;5078219;28;20053;-82
2024/01/20 04:15:33;;;;;;;1999.90;999.90;;;;;;;;;;5078563;28;20043;-87
2024/01/20 04:18:00;;;;;;;1999.90;999.90;;;;;;;;;;5071435;28;20053;-84
2024/01/20 04:20:26;;;;;;;1999.90;999.90;;;;;;;;;;5071844;28;20425;-82
2024/01/20 04:22:54;;;;;;;1999.90;999.90;;;;;;;;;;5078163;28;20052;-83
2024/01/20 04:25:20;;;;;;;1999.90;999.90;;;;;;;;;;5074985;28;20048;-82
2024/01/20 04:27:47;;;;;;;1999.90;999.90;;;;;;;;;;5074576;28;20055;-82
2024/01/20 04:30:14;;;;;;;1999.90;999.90;;;;;;;;;;5074136;28;20059;-84
2024/01/20 04:32:40;;;;;;;1999.90;999.90;;;;;;;;;;5079049;28;20084;-82
2024/01/20 04:35:08;;;;;;;1999.90;999.90;;;;;;;;;;5079261;28;20055;-82
2024/01/20 04:37:34;;;;;;;1999.90;999.90;;;;;;;;;;5082869;28;20052;-83
2024/01/20 04:40:02;;;;;;;1999.90;999.90;;;;;;;;;;5065224;28;20059;-82
2024/01/20 04:42:29;;;;;;;1999.90;999.90;;;;;;;;;;5066024;28;20497;-82
2024/01/20 04:44:55;;;;;;;1999.90;999.90;;;;;;;;;;5082670;28;20044;-82
2024/01/20 04:47:22;;;;;;;1999.90;999.90;;;;;;;;;;5074578;28;20407;-82
2024/01/20 04:50:01;;;;;;;1999.90;999.90;;;;;;;;;;5081973;28;20550;-82
2024/01/20 04:52:28;;;;;;;1999.90;999.90;;;;;;;;;;5073453;28;20135;-82
2024/01/20 04:54:55;;;;;;;1999.90;999.90;;;;;;;;;;5080319;28;20047;-81
2024/01/20 04:57:23;;;;;;;1999.90;999.90;;;;;;;;;;5082932;28;20048;-82
2024/01/20 04:59:49;;;;;;;1999.90;999.90;;;;;;;;;;5075887;28;20044;-82
2024/01/20 05:02:16;;;;;;;1999.90;999.90;;;;;;;;;;5063745;28;20060;-81
2024/01/20 05:04:42;;;;;;;1999.90;999.90;;;;;;;;;;5062562;28;20052;-81
2024/01/20 05:07:09;;;;;;;1999.90;999.90;;;;;;;;;;5071126;28;20055;-82
2024/01/20 05:09:35;;;;;;;1999.90;999.90;;;;;;;;;;5036845;28;20136;-81
2024/01/20 05:12:02;;;;;;;1999.90;999.90;;;;;;;;;;5064759;28;20041;-82
2024/01/20 05:14:30;;;;;;;1999.90;999.90;;;;;;;;;;5054916;28;20392;-84
2024/01/20 05:16:56;;;;;;;1999.90;999.90;;;;;;;;;;5058152;28;20412;-82
2024/01/20 05:19:23;;;;;;;1999.90;999.90;;;;;;;;;;5060234;28;20041;-81
2024/01/20 05:21:49;;;;;;;1999.90;999.90;;;;;;;;;;5051903;28;20044;-82
2024/01/20 05:24:16;;;;;;;1999.90;999.90;;;;;;;;;;5051148;28;20044;-82
2024/01/20 05:26:42;;;;;;;1999.90;999.90;;;;;;;;;;5051930;28;20048;-82
2024/01/20 05:29:09;;;;;;;1999.90;999.90;;;;;;;;;;5056145;28;20045;-82
2024/01/20 05:31:37;;;;;;;1999.90;999.90;;;;;;;;;;5054953;28;20063;-82
2024/01/20 05:34:03;;;;;;;1999.90;999.90;;;;;;;;;;5052790;28;20045;-82
2024/01/20 05:36:30;;;;;;;1999.90;999.90;;;;;;;;;;5051610;28;20072;-82
2024/01/20 05:38:56;;;;;;;1999.90;999.90;;;;;;;;;;5061072;28;20053;-83
2024/01/20 05:41:23;;;;;;;1999.90;999.90;;;;;;;;;;5050969;28;20490;-81
2024/01/20 05:43:49;;;;;;;1999.90;999.90;;;;;;;;;;5048083;28;20056;-82
2024/01/20 05:46:19;;;;;;;1999.90;999.90;;;;;;;;;;5057654;28;20048;-82
2024/01/20 05:48:47;;;;;;;1999.90;999.90;;;;;;;;;;5053724;28;20202;-82
2024/01/20 05:51:14;;;;;;;1999.90;999.90;;;;;;;;;;5056979;28;20052;-84
2024/01/20 05:53:41;;;;;;;1999.90;999.90;;;;;;;;;;5053393;28;20049;-81
2024/01/20 05:56:07;;;;;;;1999.90;999.90;;;;;;;;;;5059273;28;20048;-81
2024/01/20 05:58:34;;;;;;;1999.90;999.90;;;;;;;;;;5052111;28;20061;-82
2024/01/20 06:01:00;;;;;;;1999.90;999.90;;;;;;;;;;5055414;28;20049;-82
2024/01/20 06:03:27;;;;;;;1999.90;999.90;;;;;;;;;;5050831;28;20069;-82
2024/01/20 06:05:55;;;;;;;1999.90;999.90;;;;;;;;;;5078004;28;20045;-82
2024/01/20 06:08:21;;;;;;;1999.90;999.90;;;;;;;;;;5065884;28;20063;-82
2024/01/20 06:10:48;;;;;;;1999.90;999.90;;;;;;;;;;5067361;28;20062;-82
2024/01/20 06:13:14;;;;;;;1999.90;999.90;;;;;;;;;;5075916;28;20053;-82
2024/01/20 06:15:41;;;;;;;1999.90;999.90;;;;;;;;;;5086268;28;20050;-82
2024/01/20 06:18:07;;;;;;;1999.90;999.90;;;;;;;;;;5078802;28;20048;-82
2024/01/20 06:20:34;;;;;;;1999.90;999.90;;;;;;;;;;5061005;28;20051;-81
2024/01/20 06:23:02;;;;;;;1999.90;999.90;;;;;;;;;;5077013;28;20056;-83
2024/01/20 06:25:28;;;;;;;1999.90;999.90;;;;;;;;;;5077679;28;20040;-82
2024/01/20 06:27:55;;;;;;;1999.90;999.90;;;;;;;;;;5075748;28;20405;-83
2024/01/20 06:30:21;;;;;;;1999.90;999.90;;;;;;;;;;5077122;28;20056;-82
2024/01/20 06:32:48;;;;;;;1999.90;999.90;;;;;;;;;;5072270;28;20053;-82
2024/01/20 06:35:15;;;;;;;1999.90;999.90;;;;;;;;;;5064529;28;20041;-82
2024/01/20 06:37:41;;;;;;;1999.90;999.90;;;;;;;;;;5065711;28;20076;-81
2024/01/20 06:40:10;;;;;;;1999.90;999.90;;;;;;;;;;5071695;28;20080;-82
2024/01/20 06:42:36;;;;;;;1999.90;999.90;;;;;;;;;;5076016;28;20049;-83
2024/01/20 06:45:03;;;;;;;1999.90;999.90;;;;;;;;;;5064171;28;20050;-82
2024/01/20 06:47:30;;;;;;;1999.90;999.90;;;;;;;;;;5086713;28;20044;-83
2024/01/20 06:49:57;;;;;;;1999.90;999.90;;;;;;;;;;5080375;28;20044;-82
2024/01/20 06:52:23;;;;;;;1999.90;999.90;;;;;;;;;;5076527;28;20052;-81
2024/01/20 06:54:50;;;;;;;1999.90;999.90;;;;;;;;;;5077619;28;20072;-82
2024/01/20 06:57:18;;;;;;;1999.90;999.90;;;;;;;;;;5067205;28;20049;-82
2024/01/20 06:59:44;;;;;;;1999.90;999.90;;;;;;;;;;5063347;28;20066;-82
2024/01/20 07:02:11;;;;;;;1999.90;999.90;;;;;;;;;;5066367;28;20055;-84
2024/01/20 07:04:37;;;;;;;1999.90;999.90;;;;;;;;;;5068534;28;20056;-81
2024/01/20 07:07:04;;;;;;;1999.90;999.90;;;;;;;;;;5064066;28;20053;-82
2024/01/20 07:09:31;;;;;;;1999.90;999.90;;;;;;;;;;5078827;28;20048;-82
2024/01/20 07:11:57;;;;;;;1999.90;999.90;;;;;;;;;;5079036;28;20052;-82
2024/01/20 07:14:25;;;;;;;1999.90;999.90;;;;;;;;;;5078101;28;20127;-82
2024/01/20 07:16:52;;;;;;;1999.90;999.90;;;;;;;;;;5070764;28;20481;-82
2024/01/20 07:19:18;;;;;;;1999.90;999.90;;;;;;;;;;5074502;28;20053;-82
2024/01/20 07:21:45;;;;;;;1999.90;999.90;;;;;;;;;;5068000;28;20131;-83
2024/01/20 07:24:12;;;;;;;1999.90;999.90;;;;;;;;;;5067474;28;20052;-82
2024/01/20 07:26:38;;;;;;;1999.90;999.90;;;;;;;;;;5073067;28;20050;-82
2024/01/20 07:29:05;;;;;;;1999.90;999.90;;;;;;;;;;5071240;28;20504;-82
2024/01/20 07:31:33;;;;;;;1999.90;999.90;;;;;;;;;;5082705;28;20520;-82
2024/01/20 07:34:00;;;;;;;1999.90;999.90;;;;;;;;;;5070927;28;20044;-82
2024/01/20 07:36:26;;;;;;;1999.90;999.90;;;;;;;;;;5071633;28;20053;-82
2024/01/20 07:38:53;;;;;;;1999.90;999.90;;;;;;;;;;5075941;28;20055;-81
2024/01/20 07:41:19;;;;;;;1999.90;999.90;;;;;;;;;;5079230;28;20037;-82
2024/01/20 07:43:46;;;;;;;1999.90;999.90;;;;;;;;;;5077032;28;20098;-83
2024/01/20 07:46:13;;;;;;;1999.90;999.90;;;;;;;;;;5077171;28;20906;-82
2024/01/20 07:48:42;;;;;;;1999.90;999.90;;;;;;;;;;5075338;28;20453;-82
2024/01/20 07:51:09;;;;;;;1999.90;999.90;;;;;;;;;;5082005;28;20071;-83
2024/01/20 07:53:35;;;;;;;1999.90;999.90;;;;;;;;;;5070267;28;20365;-83
2024/01/20 07:56:02;;;;;;;1999.90;999.90;;;;;;;;;;5068299;28;20094;-82
2024/01/20 07:58:29;;;;;;;1999.90;999.90;;;;;;;;;;5078070;28;20106;-82
2024/01/20 08:00:55;;;;;;;1999.90;999.90;;;;;;;;;;5070461;28;20492;-82
2024/01/20 08:03:22;;;;;;;1999.90;999.90;;;;;;;;;;5080964;28;20048;-83
2024/01/20 08:05:49;;;;;;;1999.90;999.90;;;;;;;;;;5059062;28;20399;-81
2024/01/20 08:08:16;;;;;;;1999.90;999.90;;;;;;;;;;5051226;28;20051;-84
2024/01/20 08:10:43;;;;;;;1999.90;999.90;;;;;;;;;;5061796;28;20055;-83
2024/01/20 08:13:09;;;;;;;1999.90;999.90;;;;;;;;;;5062039;28;20053;-84
2024/01/20 08:15:36;;;;;;;1999.90;999.90;;;;;;;;;;5064372;28;20119;-85
2024/01/20 08:18:03;;;;;;;1999.90;999.90;;;;;;;;;;5061513;28;20052;-82
2024/01/20 08:20:33;;;;;;;1999.90;999.90;;;;;;;;;;5058983;28;20094;-82
2024/01/20 08:23:00;;;;;;;1999.90;999.90;;;;;;;;;;5056678;28;20045;-82
2024/01/20 08:25:27;;;;;;;1999.90;999.90;;;;;;;;;;5062296;28;20056;-83
2024/01/20 08:27:54;;;;;;;1999.90;999.90;;;;;;;;;;5066074;28;20063;-83
2024/01/20 08:30:20;;;;;;;1999.90;999.90;;;;;;;;;;5056892;28;20485;-83
2024/01/20 08:32:47;;;;;;;1999.90;999.90;;;;;;;;;;5054851;28;20044;-85
2024/01/20 08:35:13;;;;;;;1999.90;999.90;;;;;;;;;;5054550;28;20391;-82
2024/01/20 08:37:40;;;;;;;1999.90;999.90;;;;;;;;;;5057633;28;20045;-83
2024/01/20 08:40:09;;;;;;;1999.90;999.90;;;;;;;;;;5058374;28;20394;-83
2024/01/20 08:42:35;;;;;;;1999.90;999.90;;;;;;;;;;5058618;28;20049;-84
2024/01/20 08:45:03;;;;;;;1999.90;999.90;;;;;;;;;;5057702;28;20045;-83
2024/01/20 08:47:29;;;;;;;1999.90;999.90;;;;;;;;;;5062889;28;20090;-84
2024/01/20 08:49:56;;;;;;;1999.90;999.90;;;;;;;;;;5047470;28;20137;-83
2024/01/20 08:52:22;;;;;;;1999.90;999.90;;;;;;;;;;5061778;28;20044;-84
2024/01/20 08:54:49;;;;;;;1999.90;999.90;;;;;;;;;;5056350;28;20048;-87
2024/01/20 08:57:17;;;;;;;1999.90;999.90;;;;;;;;;;5068305;28;20048;-84
2024/01/20 08:59:43;;;;;;;1999.90;999.90;;;;;;;;;;5058928;28;20048;-85
2024/01/20 09:02:11;;;;;;;1999.90;999.90;;;;;;;;;;5059621;28;20748;-85
2024/01/20 09:04:37;;;;;;;1999.90;999.90;;;;;;;;;;5061858;28;20059;-84
2024/01/20 09:07:05;;;;;;;1999.90;999.90;;;;;;;;;;5079856;28;20071;-86
2024/01/20 09:09:31;;;;;;;1999.90;999.90;;;;;;;;;;5078381;28;20055;-85
2024/01/20 09:11:58;;;;;;;1999.90;999.90;;;;;;;;;;5083191;28;20056;-86
2024/01/20 09:14:26;;;;;;;1999.90;999.90;;;;;;;;;;5082536;28;20040;-84
2024/01/20 09:16:52;;;;;;;1999.90;999.90;;;;;;;;;;5077586;28;20040;-84
2024/01/20 09:19:19;;;;;;;1999.90;999.90;;;;;;;;;;5093455;28;20040;-85
2024/01/20 09:21:45;;;;;;;1999.90;999.90;;;;;;;;;;5090683;28;20044;-84
2024/01/20 09:24:12;;;;;;;1999.90;999.90;;;;;;;;;;5074403;28;20040;-84
2024/01/20 09:26:39;;;;;;;1999.90;999.90;;;;;;;;;;5078275;28;20123;-84
2024/01/20 09:29:05;;;;;;;1999.90;999.90;;;;;;;;;;5092615;28;20404;-84
2024/01/20 09:31:33;;;;;;;1999.90;999.90;;;;;;;;;;5079759;28;20047;-86
2024/01/20 09:34:00;;;;;;;1999.90;999.90;;;;;;;;;;5073920;28;20045;-84
2024/01/20 09:36:26;;;;;;;1999.90;999.90;;;;;;;;;;5073831;28;20044;-84
2024/01/20 09:38:53;;;;;;;1999.90;999.90;;;;;;;;;;5074223;28;20080;-84
2024/01/20 09:41:19;;;;;;;1999.90;999.90;;;;;;;;;;5073612;28;20067;-86
2024/01/20 09:43:46;;;;;;;1999.90;999.90;;;;;;;;;;5074079;28;20047;-84
2024/01/20 09:46:12;;;;;;;1999.90;999.90;;;;;;;;;;5074183;28;20056;-84
2024/01/20 09:48:42;;;;;;;1999.90;999.90;;;;;;;;;;5074237;28;20040;-84
2024/01/20 09:51:10;;;;;;;1999.90;999.90;;;;;;;;;;5074218;28;20048;-84
2024/01/20 09:53:37;;;;;;;1999.90;999.90;;;;;;;;;;5078960;28;20052;-86
2024/01/20 09:56:04;;;;;;;1999.90;999.90;;;;;;;;;;5085873;28;20098;-84
2024/01/20 09:58:32;;;;;;;1999.90;999.90;;;;;;;;;;5083911;28;20049;-85
2024/01/20 10:00:58;;;;;;;1999.90;999.90;;;;;;;;;;5092078;28;20052;-86
2024/01/20 10:03:25;;;;;;;1999.90;999.90;;;;;;;;;;5076731;28;20044;-86
2024/01/20 10:05:53;;;;;;;1999.90;999.90;;;;;;;;;;5056662;28;20489;-86
2024/01/20 10:08:19;;;;;;;1999.90;999.90;;;;;;;;;;5072873;28;20040;-87
2024/01/20 10:10:46;;;;;;;1999.90;999.90;;;;;;;;;;5073961;28;20049;-87
2024/01/20 10:13:14;;;;;;;1999.90;999.90;;;;;;;;;;5057912;28;20059;-87
2024/01/20 10:15:40;;;;;;;1999.90;999.90;;;;;;;;;;5054907;28;20049;-86
2024/01/20 10:18:10;;;;;;;1999.90;999.90;;;;;;;;;;5053716;28;20045;-86
2024/01/20 10:20:49;;;;;;;1999.90;999.90;;;;;;;;;;5068346;28;20131;-87
2024/01/20 10:23:18;;;;;;;1999.90;999.90;;;;;;;;;;5058313;28;20045;-86
2024/01/20 10:25:45;;;;;;;1999.90;999.90;;;;;;;;;;5065801;28;20111;-89
2024/01/20 10:28:12;;;;;;;1999.90;999.90;;;;;;;;;;5062666;28;20051;-86
2024/01/20 10:30:39;;;;;;;1999.90;999.90;;;;;;;;;;5055926;28;20075;-87
2024/01/20 10:33:05;;;;;;;1999.90;999.90;;;;;;;;;;5067615;28;20049;-88
2024/01/20 10:35:33;;;;;;;1999.90;999.90;;;;;;;;;;5062724;28;20041;-86
2024/01/20 10:38:01;;;;;;;1999.90;999.90;;;;;;;;;;5049658;28;20044;-86
2024/01/20 10:40:29;;;;;;;1999.90;999.90;;;;;;;;;;5053299;28;20044;-88
2024/01/20 10:42:57;;;;;;;1999.90;999.90;;;;;;;;;;5060198;28;20046;-88
2024/01/20 10:45:24;;;;;;;1999.90;999.90;;;;;;;;;;5066734;28;20041;-91
2024/01/20 10:48:00;;;;;;;1999.90;999.90;;;;;;;;;;5068028;28;20049;-91
2024/01/20 10:50:27;;;;;;;1999.90;999.90;;;;;;;;;;5068620;28;20060;-88
2024/01/20 10:52:53;;;;;;;1999.90;999.90;;;;;;;;;;5042944;28;20056;-87
2024/01/20 10:55:20;;;;;;;1999.90;999.90;;;;;;;;;;5055482;28;20444;-87
2024/01/20 10:57:49;;;;;;;1999.90;999.90;;;;;;;;;;5058301;28;20051;-87
2024/01/20 11:00:17;;;;;;;1999.90;999.90;;;;;;;;;;5058797;28;20049;-87
2024/01/20 11:02:45;;;;;;;1999.90;999.90;;;;;;;;;;5063049;28;20493;-86
2024/01/20 11:05:19;;;;;;;1999.90;999.90;;;;;;;;;;5057871;28;20061;-88
2024/01/20 11:07:56;;;;;;;1999.90;999.90;;;;;;;;;;5082871;28;20520;-86
2024/01/20 11:10:23;;;;;;;1999.90;999.90;;;;;;;;;;5077647;28;20047;-89
2024/01/20 11:13:00;;;;;;;1999.90;999.90;;;;;;;;;;5074468;28;20055;-87
2024/01/20 11:15:29;;;;;;;1999.90;999.90;;;;;;;;;;5073164;28;20102;-88
2024/01/20 11:17:55;;;;;;;1999.90;999.90;;;;;;;;;;5083717;28;20040;-88
2024/01/20 11:20:22;;;;;;;1999.90;999.90;;;;;;;;;;5087619;28;20041;-87
2024/01/20 11:22:48;;;;;;;1999.90;999.90;;;;;;;;;;5077025;28;20059;-85
2024/01/20 11:25:17;;;;;;;1999.90;999.90;;;;;;;;;;5078576;28;20051;-85
2024/01/20 11:27:45;;;;;;;1999.90;999.90;;;;;;;;;;5081096;28;20056;-85
2024/01/20 11:30:14;;;;;;;1999.90;999.90;;;;;;;;;;5063291;28;20052;-85
2024/01/20 11:32:41;;;;;;;1999.90;999.90;;;;;;;;;;5085997;28;20048;-83
2024/01/20 11:35:09;;;;;;;1999.90;999.90;;;;;;;;;;5084015;28;20048;-84
2024/01/20 11:37:35;;;;;;;1999.90;999.90;;;;;;;;;;5087768;28;20044;-84
2024/01/20 11:40:07;;;;;;;1999.90;999.90;;;;;;;;;;5061535;28;20091;-84
2024/01/20 11:42:34;;;;;;;1999.90;999.90;;;;;;;;;;5067184;28;20400;-84
2024/01/20 11:45:01;;;;;;;1999.90;999.90;;;;;;;;;;5081100;28;20090;-85
2024/01/20 11:47:30;;;;;;;1999.90;999.90;;;;;;;;;;5085931;28;20044;-84
2024/01/20 11:49:57;;;;;;;1999.90;999.90;;;;;;;;;;5080292;28;20056;-85
2024/01/20 11:52:25;;;;;;;1999.90;999.90;;;;;;;;;;5087121;28;20135;-85
2024/01/20 11:54:51;;;;;;;1999.90;999.90;;;;;;;;;;5093609;28;20122;-84
2024/01/20 11:57:21;;;;;;;1999.90;999.90;;;;;;;;;;5076135;28;20075;-83
2024/01/20 11:59:48;;;;;;;1999.90;999.90;;;;;;;;;;5075591;28;20052;-84
2024/01/20 12:02:14;;;;;;;1999.90;999.90;;;;;;;;;;5081320;28;20055;-84
2024/01/20 12:04:42;;;;;;;1999.90;999.90;;;;;;;;;;5071894;28;20065;-84
2024/01/20 12:07:09;;;;;;;1999.90;999.90;;;;;;;;;;5060812;28;20412;-85
2024/01/20 12:09:36;;;;;;;1999.90;999.90;;;;;;;;;;5068187;28;20051;-83
2024/01/20 12:12:04;;;;;;;1999.90;999.90;;;;;;;;;;5062575;28;20044;-84
2024/01/20 12:14:30;;;;;;;1999.90;999.90;;;;;;;;;;5056542;28;20057;-87
2024/01/20 12:16:57;;;;;;;1999.90;999.90;;;;;;;;;;5061407;28;20049;-84
2024/01/20 12:19:24;;;;;;;1999.90;999.90;;;;;;;;;;5055567;28;20055;-84
2024/01/20 12:21:52;;;;;;;1999.90;999.90;;;;;;;;;;5046588;28;20139;-88
2024/01/20 12:24:18;;;;;;;1999.90;999.90;;;;;;;;;;5057830;28;20053;-85
2024/01/20 12:26:45;;;;;;;1999.90;999.90;;;;;;;;;;5054172;28;20146;-86
2024/01/20 12:29:13;;;;;;;1999.90;999.90;;;;;;;;;;5055517;28;20095;-85
2024/01/20 12:31:39;;;;;;;1999.90;999.90;;;;;;;;;;5058203;28;20059;-86
2024/01/20 12:34:06;;;;;;;1999.90;999.90;;;;;;;;;;5055285;28;20055;-82
2024/01/20 12:36:33;;;;;;;1999.90;999.90;;;;;;;;;;5053061;28;20049;-86
2024/01/20 12:39:00;;;;;;;1999.90;999.90;;;;;;;;;;5054916;28;20504;-84
2024/01/20 12:41:27;;;;;;;1999.90;999.90;;;;;;;;;;5054497;28;20044;-84
2024/01/20 12:43:54;;;;;;;1999.90;999.90;;;;;;;;;;5063335;28;20049;-85
2024/01/20 12:46:20;;;;;;;1999.90;999.90;;;;;;;;;;5063865;28;20139;-86
2024/01/20 12:48:47;;;;;;;1999.90;999.90;;;;;;;;;;5062974;28;20139;-85
2024/01/20 12:51:13;;;;;;;1999.90;999.90;;;;;;;;;;5068730;28;20045;-86
2024/01/20 12:53:40;;;;;;;1999.90;999.90;;;;;;;;;;5066699;28;20048;-85
2024/01/20 12:56:08;;;;;;;1999.90;999.90;;;;;;;;;;5056723;28;20048;-84
2024/01/20 12:58:34;;;;;;;1999.90;999.90;;;;;;;;;;5058430;28;20053;-85
2024/01/20 13:01:02;;;;;;;1999.90;999.90;;;;;;;;;;5052394;28;20058;-87
2024/01/20 13:03:29;;;;;;;1999.90;999.90;;;;;;;;;;5056580;28;20049;-85
2024/01/20 13:05:55;;;;;;;1999.90;999.90;;;;;;;;;;5081440;28;20060;-85
2024/01/20 13:08:22;;;;;;;1999.90;999.90;;;;;;;;;;5081416;28;20049;-87
2024/01/20 13:10:50;;;;;;;1999.90;999.90;;;;;;;;;;5073339;28;20128;-85
2024/01/20 13:13:21;;;;;;;1999.90;999.90;;;;;;;;;;5079878;28;20135;-89
2024/01/20 13:15:47;;;;;;;1999.90;999.90;;;;;;;;;;5058349;28;20511;-89
2024/01/20 13:18:14;;;;;;;1999.90;999.90;;;;;;;;;;5086639;28;20044;-88
2024/01/20 13:20:40;;;;;;;1999.90;999.90;;;;;;;;;;5077870;28;20044;-88
2024/01/20 13:23:08;;;;;;;1999.90;999.90;;;;;;;;;;5078950;28;20063;-88
2024/01/20 13:25:34;;;;;;;1999.90;999.90;;;;;;;;;;5076698;28;20051;-89
2024/01/20 13:28:01;;;;;;;1999.90;999.90;;;;;;;;;;5070061;28;20049;-89
2024/01/20 13:30:29;;;;;;;1999.90;999.90;;;;;;;;;;5085124;28;20119;-88
2024/01/20 13:32:55;;;;;;;1999.90;999.90;;;;;;;;;;5079972;28;20044;-88
2024/01/20 13:35:22;;;;;;;1999.90;999.90;;;;;;;;;;5080742;28;20040;-89
2024/01/20 13:37:48;;;;;;;1999.90;999.90;;;;;;;;;;5080243;28;20066;-87
2024/01/20 13:40:15;;;;;;;1999.90;999.90;;;;;;;;;;5078747;28;20044;-88